createdAt,value
2018-12-01T00:00:05.548Z,0
2018-12-01T00:01:15.737Z,0
2018-12-01T00:02:25.931Z,0
2018-12-01T00:03:36.109Z,0
2018-12-01T00:04:46.298Z,0
2018-12-01T00:05:56.359Z,0
2018-12-01T00:07:06.541Z,0
2018-12-01T00:08:16.720Z,0
2018-12-01T00:09:26.901Z,0
2018-12-01T00:10:36.813Z,0
2018-12-01T00:11:47.044Z,0
2018-12-01T00:12:57.231Z,0
2018-12-01T00:14:07.414Z,0
2018-12-01T00:15:17.601Z,0
2018-12-01T00:16:27.790Z,0
2018-12-01T00:17:38.024Z,0
2018-12-01T00:18:48.205Z,0
2018-12-01T00:19:58.390Z,0
2018-12-01T00:21:08.572Z,0
2018-12-01T00:22:18.768Z,0
2018-12-01T00:23:29.098Z,0
2018-12-01T00:24:39.279Z,0
2018-12-01T00:25:49.458Z,0
2018-12-01T00:26:59.641Z,0
2018-12-01T00:28:09.819Z,0
2018-12-01T00:29:20.101Z,0
2018-12-01T00:30:30.284Z,0
2018-12-01T00:31:40.462Z,0
2018-12-01T00:32:50.661Z,0
2018-12-01T00:34:00.842Z,0
2018-12-01T00:35:11.122Z,0
2018-12-01T00:36:21.305Z,0
2018-12-01T00:37:31.484Z,0
2018-12-01T00:38:41.708Z,0
2018-12-01T00:39:51.891Z,0
2018-12-01T00:41:02.184Z,0
2018-12-01T00:42:12.362Z,0
2018-12-01T00:43:22.545Z,0
2018-12-01T00:44:32.724Z,0
2018-12-01T00:45:42.909Z,0
2018-12-01T00:46:53.139Z,0
2018-12-01T00:48:03.331Z,0
2018-12-01T00:49:13.516Z,0
2018-12-01T00:50:23.716Z,0
2018-12-01T00:51:33.899Z,0
2018-12-01T00:52:44.187Z,0
2018-12-01T00:53:54.369Z,0
2018-12-01T00:55:04.552Z,0
2018-12-01T00:56:14.734Z,0
2018-12-01T00:57:24.924Z,0
2018-12-01T00:58:35.171Z,0
2018-12-01T00:59:45.349Z,0
2018-12-01T01:00:55.537Z,0
2018-12-01T01:02:05.718Z,0
2018-12-01T01:03:15.905Z,0
2018-12-01T01:04:26.267Z,0
2018-12-01T01:05:36.183Z,0
2018-12-01T01:06:46.365Z,0
2018-12-01T01:07:56.547Z,0
2018-12-01T01:09:06.731Z,0
2018-12-01T01:10:16.691Z,0
2018-12-01T01:11:26.870Z,0
2018-12-01T01:12:38.025Z,0
2018-12-01T01:13:48.206Z,0
2018-12-01T01:14:58.392Z,0
2018-12-01T01:16:08.621Z,0
2018-12-01T01:17:18.804Z,0
2018-12-01T01:18:29.007Z,0
2018-12-01T01:19:39.190Z,0
2018-12-01T01:20:49.376Z,0
2018-12-01T01:21:59.716Z,0
2018-12-01T01:23:09.910Z,0
2018-12-01T01:24:20.094Z,0
2018-12-01T01:25:30.283Z,0
2018-12-01T01:26:40.463Z,0
2018-12-01T01:27:50.743Z,0
2018-12-01T01:29:00.927Z,0
2018-12-01T01:30:11.108Z,0
2018-12-01T01:31:21.287Z,0
2018-12-01T01:32:31.473Z,0
2018-12-01T01:33:41.803Z,0
2018-12-01T01:34:51.989Z,0
2018-12-01T01:36:02.202Z,0
2018-12-01T01:37:12.382Z,0
2018-12-01T01:38:22.562Z,0
2018-12-01T01:39:32.798Z,0
2018-12-01T01:40:42.993Z,0
2018-12-01T01:41:53.184Z,0
2018-12-01T01:43:03.370Z,0
2018-12-01T01:44:13.551Z,0
2018-12-01T01:45:23.877Z,0
2018-12-01T01:46:34.060Z,0
2018-12-01T01:47:44.244Z,0
2018-12-01T01:48:54.438Z,0
2018-12-01T01:50:04.617Z,0
2018-12-01T01:51:14.850Z,0
2018-12-01T01:52:25.030Z,0
2018-12-01T01:53:35.210Z,0
2018-12-01T01:54:45.413Z,0
2018-12-01T01:55:55.600Z,0
2018-12-01T01:57:05.844Z,0
2018-12-01T01:58:16.031Z,0
2018-12-01T01:59:26.223Z,0
2018-12-01T02:00:36.410Z,0
2018-12-01T02:01:46.604Z,0
2018-12-01T02:02:56.942Z,0
2018-12-01T02:04:07.127Z,0
2018-12-01T02:05:17.311Z,0
2018-12-01T02:06:27.496Z,0
2018-12-01T02:07:37.679Z,0
2018-12-01T02:08:47.965Z,0
2018-12-01T02:09:58.156Z,0
2018-12-01T02:11:08.342Z,0
2018-12-01T02:12:18.528Z,0
2018-12-01T02:13:28.715Z,0
2018-12-01T02:14:39.058Z,0
2018-12-01T02:15:49.245Z,0
2018-12-01T02:16:59.640Z,0
2018-12-01T02:18:09.829Z,0
2018-12-01T02:19:20.020Z,0
2018-12-01T02:20:30.359Z,0
2018-12-01T02:21:40.548Z,0
2018-12-01T02:22:50.739Z,0
2018-12-01T02:24:00.930Z,0
2018-12-01T02:25:11.116Z,0
2018-12-01T02:26:21.399Z,0
2018-12-01T02:27:31.311Z,0
2018-12-01T02:28:41.499Z,0
2018-12-01T02:29:51.690Z,0
2018-12-01T02:31:01.880Z,0
2018-12-01T02:32:12.250Z,0
2018-12-01T02:33:22.461Z,0
2018-12-01T02:34:32.667Z,0
2018-12-01T02:35:42.864Z,0
2018-12-01T02:36:53.082Z,0
2018-12-01T02:38:03.394Z,0
2018-12-01T02:39:13.580Z,0
2018-12-01T02:40:23.792Z,0
2018-12-01T02:41:33.758Z,0
2018-12-01T02:42:43.954Z,0
2018-12-01T02:43:53.917Z,0
2018-12-01T02:45:04.107Z,0
2018-12-01T02:46:14.304Z,0
2018-12-01T02:47:24.501Z,0
2018-12-01T02:48:34.683Z,0
2018-12-01T02:49:44.969Z,0
2018-12-01T02:50:55.157Z,0
2018-12-01T02:52:05.349Z,0
2018-12-01T02:53:15.530Z,0
2018-12-01T02:54:25.716Z,0
2018-12-01T02:55:35.700Z,0
2018-12-01T02:56:45.889Z,0
2018-12-01T02:57:56.073Z,0
2018-12-01T02:59:06.273Z,0
2018-12-01T03:00:16.456Z,0
2018-12-01T03:01:26.741Z,0
2018-12-01T03:02:36.921Z,0
2018-12-01T03:03:47.146Z,0
2018-12-01T03:04:57.329Z,0
2018-12-01T03:06:07.510Z,0
2018-12-01T03:07:17.837Z,0
2018-12-01T03:08:28.017Z,0
2018-12-01T03:09:38.198Z,0
2018-12-01T03:10:48.389Z,0
2018-12-01T03:11:58.569Z,0
2018-12-01T03:13:08.801Z,0
2018-12-01T03:14:18.978Z,0
2018-12-01T03:15:29.176Z,0
2018-12-01T03:16:39.358Z,0
2018-12-01T03:17:49.543Z,0
2018-12-01T03:18:59.730Z,0
2018-12-01T03:20:09.910Z,0
2018-12-01T03:21:19.828Z,0
2018-12-01T03:22:30.023Z,0
2018-12-01T03:23:40.205Z,0
2018-12-01T03:24:50.483Z,0
2018-12-01T03:26:00.663Z,0
2018-12-01T03:27:10.842Z,0
2018-12-01T03:28:21.024Z,0
2018-12-01T03:29:31.210Z,0
2018-12-01T03:30:41.524Z,0
2018-12-01T03:31:51.725Z,0
2018-12-01T03:33:01.994Z,0
2018-12-01T03:34:12.183Z,0
2018-12-01T03:35:22.371Z,0
2018-12-01T03:36:32.716Z,0
2018-12-01T03:37:42.922Z,0
2018-12-01T03:38:53.112Z,0
2018-12-01T03:40:03.293Z,0
2018-12-01T03:41:13.472Z,0
2018-12-01T03:42:23.768Z,0
2018-12-01T03:43:33.948Z,0
2018-12-01T03:44:44.124Z,0
2018-12-01T03:45:54.303Z,0
2018-12-01T03:47:04.483Z,0
2018-12-01T03:48:14.725Z,0
2018-12-01T03:49:24.926Z,0
2018-12-01T03:50:35.106Z,0
2018-12-01T03:51:45.296Z,0
2018-12-01T03:52:55.480Z,0
2018-12-01T03:54:05.812Z,0
2018-12-01T03:55:15.992Z,0
2018-12-01T03:56:26.171Z,0
2018-12-01T03:57:36.350Z,0
2018-12-01T03:58:46.525Z,0
2018-12-01T03:59:56.755Z,0
2018-12-01T04:01:06.935Z,0
2018-12-01T04:02:17.117Z,0
2018-12-01T04:03:27.353Z,0
2018-12-01T04:04:37.533Z,0
2018-12-01T04:05:47.492Z,0
2018-12-01T04:06:57.677Z,0
2018-12-01T04:08:07.855Z,0
2018-12-01T04:09:18.034Z,0
2018-12-01T04:10:28.217Z,0
2018-12-01T04:11:38.584Z,0
2018-12-01T04:12:48.765Z,0
2018-12-01T04:13:58.943Z,0
2018-12-01T04:15:09.125Z,0
2018-12-01T04:16:19.306Z,0
2018-12-01T04:17:29.635Z,0
2018-12-01T04:18:39.813Z,0
2018-12-01T04:19:49.992Z,0
2018-12-01T04:21:00.175Z,0
2018-12-01T04:22:10.404Z,0
2018-12-01T04:23:20.680Z,0
2018-12-01T04:24:30.858Z,0
2018-12-01T04:25:41.035Z,0
2018-12-01T04:26:51.216Z,0
2018-12-01T04:28:01.396Z,0
2018-12-01T04:29:11.724Z,0
2018-12-01T04:30:21.908Z,0
2018-12-01T04:31:32.088Z,0
2018-12-01T04:32:42.272Z,0
2018-12-01T04:33:52.497Z,0
2018-12-01T04:35:02.782Z,0
2018-12-01T04:36:12.961Z,0
2018-12-01T04:37:23.142Z,0
2018-12-01T04:38:33.329Z,0
2018-12-01T04:39:43.236Z,0
2018-12-01T04:40:53.564Z,0
2018-12-01T04:42:03.740Z,0
2018-12-01T04:43:13.922Z,0
2018-12-01T04:44:23.833Z,0
2018-12-01T04:45:34.019Z,0
2018-12-01T04:46:44.247Z,0
2018-12-01T04:47:54.436Z,0
2018-12-01T04:49:04.622Z,0
2018-12-01T04:50:14.807Z,0
2018-12-01T04:51:24.988Z,0
2018-12-01T04:52:35.220Z,0
2018-12-01T04:53:45.398Z,0
2018-12-01T04:54:55.578Z,0
2018-12-01T04:56:05.758Z,0
2018-12-01T04:57:15.943Z,0
2018-12-01T04:58:26.227Z,0
2018-12-01T04:59:36.410Z,0
2018-12-01T05:00:46.601Z,0
2018-12-01T05:01:56.515Z,0
2018-12-01T05:03:06.702Z,0
2018-12-01T05:04:16.993Z,0
2018-12-01T05:05:27.188Z,0
2018-12-01T05:06:37.367Z,0
2018-12-01T05:07:47.546Z,0
2018-12-01T05:08:57.735Z,0
2018-12-01T05:10:08.041Z,0
2018-12-01T05:11:18.224Z,0
2018-12-01T05:12:28.402Z,0
2018-12-01T05:13:38.591Z,0
2018-12-01T05:14:48.770Z,0
2018-12-01T05:15:59.013Z,0
2018-12-01T05:17:09.192Z,0
2018-12-01T05:18:19.370Z,0
2018-12-01T05:19:29.552Z,0
2018-12-01T05:20:39.732Z,0
2018-12-01T05:21:50.065Z,0
2018-12-01T05:23:00.247Z,0
2018-12-01T05:24:10.427Z,0
2018-12-01T05:25:20.616Z,0
2018-12-01T05:26:30.524Z,0
2018-12-01T05:27:40.765Z,0
2018-12-01T05:28:50.948Z,0
2018-12-01T05:30:01.130Z,0
2018-12-01T05:31:11.319Z,0
2018-12-01T05:32:21.242Z,0
2018-12-01T05:33:31.467Z,0
2018-12-01T05:34:41.652Z,0
2018-12-01T05:35:51.831Z,0
2018-12-01T05:37:02.013Z,0
2018-12-01T05:38:12.221Z,0
2018-12-01T05:39:22.448Z,0
2018-12-01T05:40:32.623Z,0
2018-12-01T05:41:42.812Z,0
2018-12-01T05:42:52.994Z,0
2018-12-01T05:44:03.184Z,0
2018-12-01T05:45:13.471Z,0
2018-12-01T05:46:23.658Z,0
2018-12-01T05:47:33.835Z,0
2018-12-01T05:48:44.031Z,0
2018-12-01T05:49:54.214Z,0
2018-12-01T05:51:04.550Z,0
2018-12-01T05:52:14.734Z,0
2018-12-01T05:53:24.910Z,0
2018-12-01T05:54:35.088Z,0
2018-12-01T05:55:45.272Z,0
2018-12-01T05:56:55.500Z,0
2018-12-01T05:58:05.678Z,0
2018-12-01T05:59:15.858Z,0
2018-12-01T06:00:26.043Z,0
2018-12-01T06:01:36.222Z,0
2018-12-01T06:02:46.556Z,0
2018-12-01T06:03:56.735Z,0
2018-12-01T06:05:06.914Z,0
2018-12-01T06:06:17.091Z,0
2018-12-01T06:07:27.268Z,0
2018-12-01T06:08:37.549Z,0
2018-12-01T06:09:47.737Z,0
2018-12-01T06:10:57.923Z,0
2018-12-01T06:12:08.114Z,0
2018-12-01T06:13:18.296Z,0
2018-12-01T06:14:28.635Z,0
2018-12-01T06:15:38.818Z,0
2018-12-01T06:16:48.735Z,0
2018-12-01T06:17:58.931Z,0
2018-12-01T06:19:09.110Z,0
2018-12-01T06:20:19.349Z,0
2018-12-01T06:21:29.548Z,0
2018-12-01T06:22:39.727Z,0
2018-12-01T06:23:49.908Z,0
2018-12-01T06:24:59.827Z,0
2018-12-01T06:26:10.122Z,0
2018-12-01T06:27:20.299Z,0
2018-12-01T06:28:30.514Z,0
2018-12-01T06:29:40.701Z,0
2018-12-01T06:30:50.880Z,0
2018-12-01T06:32:01.221Z,0
2018-12-01T06:33:11.398Z,0
2018-12-01T06:34:21.587Z,0
2018-12-01T06:35:31.769Z,0
2018-12-01T06:36:41.949Z,0
2018-12-01T06:37:51.911Z,0
2018-12-01T06:39:02.096Z,0
2018-12-01T06:40:12.273Z,0
2018-12-01T06:41:22.453Z,0
2018-12-01T06:42:32.639Z,0
2018-12-01T06:43:42.923Z,0
2018-12-01T06:44:53.100Z,0
2018-12-01T06:46:03.282Z,0
2018-12-01T06:47:13.463Z,0
2018-12-01T06:48:23.649Z,0
2018-12-01T06:49:33.929Z,0
2018-12-01T06:50:44.107Z,0
2018-12-01T06:51:54.291Z,0
2018-12-01T06:53:04.472Z,0
2018-12-01T06:54:14.653Z,0
2018-12-01T06:55:24.979Z,0
2018-12-01T06:56:35.158Z,0
2018-12-01T06:57:45.343Z,0
2018-12-01T06:58:55.531Z,0
2018-12-01T07:00:05.712Z,0
2018-12-01T07:01:15.992Z,0
2018-12-01T07:02:26.170Z,0
2018-12-01T07:03:36.359Z,0
2018-12-01T07:04:46.534Z,0
2018-12-01T07:05:56.715Z,0
2018-12-01T07:07:06.781Z,0
2018-12-01T07:08:16.967Z,0
2018-12-01T07:09:27.152Z,4
2018-12-01T07:10:37.333Z,4
2018-12-01T07:11:47.526Z,4
2018-12-01T07:12:57.868Z,4
2018-12-01T07:14:08.054Z,0
2018-12-01T07:15:17.695Z,4
2018-12-01T07:16:27.874Z,4
2018-12-01T07:17:38.054Z,4
2018-12-01T07:18:48.288Z,4
2018-12-01T07:19:58.476Z,4
2018-12-01T07:21:08.667Z,8
2018-12-01T07:22:18.847Z,8
2018-12-01T07:23:29.026Z,8
2018-12-01T07:24:39.359Z,8
2018-12-01T07:25:49.533Z,12
2018-12-01T07:26:59.722Z,16
2018-12-01T07:28:09.905Z,16
2018-12-01T07:29:20.085Z,24
2018-12-01T07:30:30.363Z,24
2018-12-01T07:31:40.538Z,32
2018-12-01T07:32:50.736Z,36
2018-12-01T07:34:00.926Z,40
2018-12-01T07:35:11.119Z,44
2018-12-01T07:36:21.402Z,52
2018-12-01T07:37:31.587Z,56
2018-12-01T07:38:41.766Z,64
2018-12-01T07:39:51.687Z,68
2018-12-01T07:41:01.867Z,72
2018-12-01T07:42:12.245Z,80
2018-12-01T07:43:22.424Z,88
2018-12-01T07:44:32.608Z,96
2018-12-01T07:45:42.791Z,108
2018-12-01T07:46:52.970Z,116
2018-12-01T07:48:03.205Z,128
2018-12-01T07:49:13.393Z,144
2018-12-01T07:50:24.263Z,164
2018-12-01T07:51:34.502Z,180
2018-12-01T07:52:44.684Z,196
2018-12-01T07:53:54.963Z,212
2018-12-01T07:55:05.141Z,224
2018-12-01T07:56:15.325Z,240
2018-12-01T07:57:25.506Z,248
2018-12-01T07:58:35.686Z,264
2018-12-01T07:59:46.016Z,276
2018-12-01T08:00:55.935Z,288
2018-12-01T08:02:06.120Z,300
2018-12-01T08:03:16.300Z,316
2018-12-01T08:04:26.482Z,328
2018-12-01T08:05:36.761Z,324
2018-12-01T08:06:46.674Z,332
2018-12-01T08:07:56.851Z,336
2018-12-01T08:09:07.033Z,380
2018-12-01T08:10:17.214Z,404
2018-12-01T08:11:27.551Z,424
2018-12-01T08:12:37.728Z,456
2018-12-01T08:13:47.911Z,492
2018-12-01T08:14:58.092Z,524
2018-12-01T08:16:08.273Z,560
2018-12-01T08:17:18.616Z,592
2018-12-01T08:18:28.842Z,620
2018-12-01T08:19:39.020Z,636
2018-12-01T08:20:49.206Z,636
2018-12-01T08:22:00.388Z,636
2018-12-01T08:23:10.670Z,636
2018-12-01T08:24:20.850Z,644
2018-12-01T08:25:31.027Z,656
2018-12-01T08:26:41.213Z,664
2018-12-01T08:27:51.405Z,692
2018-12-01T08:29:01.734Z,720
2018-12-01T08:30:11.914Z,736
2018-12-01T08:31:22.096Z,724
2018-12-01T08:32:32.278Z,724
2018-12-01T08:33:42.463Z,748
2018-12-01T08:34:52.694Z,784
2018-12-01T08:36:02.880Z,816
2018-12-01T08:37:13.086Z,848
2018-12-01T08:38:23.275Z,856
2018-12-01T08:39:33.453Z,828
2018-12-01T08:40:43.690Z,820
2018-12-01T08:41:53.869Z,800
2018-12-01T08:43:04.054Z,808
2018-12-01T08:44:14.243Z,816
2018-12-01T08:45:24.424Z,816
2018-12-01T08:46:34.757Z,816
2018-12-01T08:47:44.939Z,800
2018-12-01T08:48:55.137Z,764
2018-12-01T08:50:05.315Z,740
2018-12-01T08:51:15.499Z,748
2018-12-01T08:52:25.829Z,748
2018-12-01T08:53:36.006Z,764
2018-12-01T08:54:46.188Z,796
2018-12-01T08:55:56.371Z,840
2018-12-01T08:57:06.549Z,880
2018-12-01T08:58:16.887Z,904
2018-12-01T08:59:27.069Z,924
2018-12-01T09:00:37.248Z,944
2018-12-01T09:01:47.431Z,996
2018-12-01T09:02:57.619Z,1076
2018-12-01T09:04:07.962Z,1136
2018-12-01T09:05:18.147Z,1172
2018-12-01T09:06:28.325Z,1212
2018-12-01T09:07:38.506Z,1292
2018-12-01T09:08:48.689Z,1400
2018-12-01T09:09:58.918Z,1516
2018-12-01T09:11:08.830Z,1648
2018-12-01T09:12:19.141Z,1760
2018-12-01T09:13:29.326Z,1836
2018-12-01T09:14:39.511Z,1872
2018-12-01T09:15:49.742Z,1872
2018-12-01T09:16:59.925Z,1880
2018-12-01T09:18:10.111Z,1884
2018-12-01T09:19:20.292Z,1912
2018-12-01T09:20:30.474Z,1848
2018-12-01T09:21:40.757Z,1704
2018-12-01T09:22:50.938Z,1616
2018-12-01T09:24:01.125Z,1640
2018-12-01T09:25:11.308Z,1732
2018-12-01T09:26:21.492Z,1660
2018-12-01T09:27:31.830Z,1536
2018-12-01T09:28:41.753Z,1376
2018-12-01T09:29:51.938Z,1292
2018-12-01T09:31:02.118Z,1256
2018-12-01T09:32:12.298Z,1228
2018-12-01T09:33:22.529Z,1280
2018-12-01T09:34:32.711Z,1320
2018-12-01T09:35:42.893Z,1316
2018-12-01T09:36:53.076Z,1380
2018-12-01T09:38:03.313Z,1408
2018-12-01T09:39:13.600Z,1448
2018-12-01T09:40:23.786Z,1492
2018-12-01T09:41:33.974Z,1572
2018-12-01T09:42:44.158Z,1628
2018-12-01T09:43:54.337Z,1640
2018-12-01T09:45:04.569Z,1616
2018-12-01T09:46:14.748Z,1652
2018-12-01T09:47:24.933Z,1808
2018-12-01T09:48:35.110Z,1952
2018-12-01T09:49:45.298Z,2060
2018-12-01T09:50:55.616Z,2220
2018-12-01T09:52:05.799Z,2248
2018-12-01T09:53:15.979Z,2212
2018-12-01T09:54:26.164Z,2096
2018-12-01T09:55:36.079Z,2012
2018-12-01T09:56:46.329Z,1960
2018-12-01T09:57:56.513Z,2044
2018-12-01T09:59:06.695Z,2160
2018-12-01T10:00:16.882Z,1976
2018-12-01T10:01:27.067Z,1748
2018-12-01T10:02:37.316Z,1748
2018-12-01T10:03:47.507Z,1596
2018-12-01T10:04:57.697Z,1536
2018-12-01T10:06:07.880Z,1588
2018-12-01T10:07:17.798Z,1596
2018-12-01T10:08:28.132Z,1748
2018-12-01T10:09:38.322Z,1788
2018-12-01T10:10:48.501Z,1796
2018-12-01T10:11:58.688Z,1828
2018-12-01T10:13:08.605Z,1836
2018-12-01T10:14:18.937Z,1776
2018-12-01T10:15:29.119Z,1640
2018-12-01T10:16:39.300Z,1508
2018-12-01T10:17:49.510Z,1696
2018-12-01T10:19:03.842Z,1912
2018-12-01T10:20:14.071Z,1692
2018-12-01T10:21:24.281Z,1788
2018-12-01T10:22:34.470Z,1844
2018-12-01T10:23:44.651Z,2280
2018-12-01T10:24:54.839Z,2356
2018-12-01T10:26:05.173Z,2540
2018-12-01T10:27:15.360Z,4184
2018-12-01T10:28:25.542Z,6516
2018-12-01T10:29:36.472Z,4028
2018-12-01T10:30:46.652Z,5344
2018-12-01T10:31:56.938Z,9484
2018-12-01T10:33:07.122Z,8060
2018-12-01T10:34:17.304Z,3816
2018-12-01T10:35:27.486Z,3492
2018-12-01T10:36:37.674Z,3476
2018-12-01T10:37:47.904Z,4052
2018-12-01T10:39:03.560Z,3944
2018-12-01T10:40:13.905Z,3884
2018-12-01T10:41:24.084Z,3644
2018-12-01T10:42:34.267Z,3896
2018-12-01T10:43:44.562Z,3704
2018-12-01T10:44:54.741Z,3688
2018-12-01T10:46:05.489Z,3740
2018-12-01T10:47:15.670Z,3484
2018-12-01T10:48:25.859Z,3264
2018-12-01T10:49:36.040Z,2732
2018-12-01T10:50:46.223Z,2324
2018-12-01T10:51:56.409Z,2136
2018-12-01T10:53:06.587Z,2184
2018-12-01T10:54:16.765Z,2100
2018-12-01T10:55:27.044Z,1880
2018-12-01T10:56:36.975Z,1960
2018-12-01T10:57:47.157Z,2164
2018-12-01T10:58:57.342Z,2312
2018-12-01T11:00:07.525Z,2256
2018-12-01T11:01:17.812Z,2368
2018-12-01T11:02:27.997Z,2516
2018-12-01T11:03:38.181Z,2504
2018-12-01T11:04:48.358Z,2464
2018-12-01T11:05:58.545Z,2532
2018-12-01T11:07:08.826Z,2540
2018-12-01T11:08:19.006Z,2432
2018-12-01T11:09:29.184Z,2440
2018-12-01T11:10:39.369Z,2272
2018-12-01T11:11:49.572Z,2116
2018-12-01T11:12:59.759Z,2264
2018-12-01T11:14:09.673Z,2176
2018-12-01T11:15:19.859Z,2332
2018-12-01T11:16:30.041Z,3124
2018-12-01T11:17:40.225Z,2624
2018-12-01T11:18:50.558Z,3516
2018-12-01T11:20:00.743Z,3356
2018-12-01T11:21:10.931Z,3296
2018-12-01T11:22:21.113Z,3236
2018-12-01T11:23:31.301Z,2916
2018-12-01T11:24:41.485Z,2868
2018-12-01T11:25:51.668Z,7816
2018-12-01T11:27:01.860Z,10268
2018-12-01T11:28:12.045Z,6508
2018-12-01T11:29:21.957Z,3944
2018-12-01T11:30:32.146Z,5344
2018-12-01T11:31:42.073Z,5204
2018-12-01T11:32:52.262Z,10484
2018-12-01T11:34:02.448Z,8192
2018-12-01T11:35:12.627Z,7376
2018-12-01T11:36:22.809Z,7564
2018-12-01T11:37:32.998Z,6484
2018-12-01T11:38:43.182Z,4896
2018-12-01T11:39:53.368Z,15104
2018-12-01T11:41:03.287Z,10584
2018-12-01T11:42:13.568Z,10916
2018-12-01T11:43:23.755Z,3288
2018-12-01T11:44:33.939Z,2904
2018-12-01T11:45:44.123Z,2896
2018-12-01T11:46:54.322Z,3728
2018-12-01T11:48:04.653Z,4244
2018-12-01T11:49:14.574Z,8696
2018-12-01T11:50:24.800Z,10096
2018-12-01T11:51:34.987Z,9800
2018-12-01T11:52:45.182Z,6724
2018-12-01T11:53:55.366Z,4148
2018-12-01T11:55:05.553Z,3268
2018-12-01T11:56:15.737Z,6768
2018-12-01T11:57:25.926Z,5856
2018-12-01T11:58:36.113Z,4392
2018-12-01T11:59:46.404Z,3596
2018-12-01T12:00:56.601Z,2884
2018-12-01T12:02:08.014Z,2172
2018-12-01T12:03:18.210Z,2220
2018-12-01T12:04:28.396Z,2320
2018-12-01T12:05:38.633Z,2312
2018-12-01T12:06:48.816Z,2196
2018-12-01T12:07:59.000Z,2280
2018-12-01T12:09:09.190Z,2532
2018-12-01T12:10:19.377Z,3284
2018-12-01T12:11:29.611Z,3736
2018-12-01T12:12:39.798Z,4032
2018-12-01T12:13:49.988Z,4824
2018-12-01T12:15:00.178Z,3076
2018-12-01T12:16:10.362Z,2740
2018-12-01T12:17:20.593Z,2732
2018-12-01T12:18:31.464Z,2880
2018-12-01T12:19:42.084Z,2792
2018-12-01T12:20:52.274Z,2780
2018-12-01T12:22:02.464Z,2592
2018-12-01T12:23:12.745Z,2376
2018-12-01T12:24:22.663Z,2244
2018-12-01T12:25:32.855Z,2172
2018-12-01T12:26:43.050Z,2200
2018-12-01T12:27:52.968Z,2056
2018-12-01T12:29:03.254Z,2004
2018-12-01T12:30:13.443Z,1944
2018-12-01T12:31:23.625Z,1832
2018-12-01T12:32:33.549Z,1628
2018-12-01T12:33:43.731Z,1432
2018-12-01T12:34:54.069Z,1392
2018-12-01T12:36:04.263Z,1360
2018-12-01T12:37:14.455Z,1416
2018-12-01T12:38:24.641Z,1524
2018-12-01T12:39:34.823Z,1532
2018-12-01T12:40:45.106Z,1552
2018-12-01T12:41:55.291Z,1580
2018-12-01T12:43:05.478Z,1648
2018-12-01T12:44:15.412Z,1724
2018-12-01T12:45:25.598Z,1880
2018-12-01T12:46:36.534Z,2036
2018-12-01T12:47:46.731Z,2116
2018-12-01T12:48:56.921Z,2140
2018-12-01T12:50:07.105Z,2188
2018-12-01T12:51:17.295Z,2220
2018-12-01T12:52:27.581Z,2120
2018-12-01T12:53:37.762Z,2040
2018-12-01T12:54:47.675Z,2020
2018-12-01T12:55:57.587Z,2028
2018-12-01T12:57:07.791Z,2056
2018-12-01T12:58:18.075Z,2104
2018-12-01T12:59:28.259Z,2040
2018-12-01T13:00:39.113Z,1944
2018-12-01T13:01:49.305Z,1900
2018-12-01T13:02:59.487Z,1940
2018-12-01T13:04:09.771Z,2000
2018-12-01T13:05:19.961Z,2084
2018-12-01T13:06:29.876Z,2032
2018-12-01T13:07:40.056Z,1888
2018-12-01T13:08:50.242Z,1748
2018-12-01T13:10:00.425Z,1640
2018-12-01T13:11:10.614Z,1560
2018-12-01T13:12:20.798Z,1500
2018-12-01T13:13:30.979Z,1432
2018-12-01T13:14:41.166Z,1364
2018-12-01T13:15:51.183Z,1308
2018-12-01T13:17:01.363Z,1252
2018-12-01T13:18:11.550Z,1224
2018-12-01T13:19:21.729Z,1232
2018-12-01T13:20:31.956Z,1236
2018-12-01T13:21:42.239Z,1220
2018-12-01T13:22:52.418Z,1168
2018-12-01T13:24:02.602Z,1080
2018-12-01T13:25:12.783Z,1040
2018-12-01T13:26:22.966Z,1016
2018-12-01T13:27:33.155Z,984
2018-12-01T13:28:43.333Z,956
2018-12-01T13:29:53.516Z,940
2018-12-01T13:31:03.695Z,932
2018-12-01T13:32:13.876Z,924
2018-12-01T13:33:24.101Z,900
2018-12-01T13:34:34.352Z,856
2018-12-01T13:35:44.529Z,816
2018-12-01T13:36:54.717Z,788
2018-12-01T13:38:04.906Z,760
2018-12-01T13:39:15.696Z,732
2018-12-01T13:40:25.877Z,700
2018-12-01T13:41:36.061Z,676
2018-12-01T13:42:45.974Z,668
2018-12-01T13:43:56.160Z,652
2018-12-01T13:45:06.345Z,608
2018-12-01T13:46:16.525Z,596
2018-12-01T13:47:26.714Z,584
2018-12-01T13:48:36.896Z,600
2018-12-01T13:49:47.078Z,576
2018-12-01T13:50:57.259Z,556
2018-12-01T13:52:07.937Z,544
2018-12-01T13:53:18.122Z,512
2018-12-01T13:54:28.307Z,496
2018-12-01T13:55:38.486Z,476
2018-12-01T13:56:48.831Z,452
2018-12-01T13:57:59.018Z,432
2018-12-01T13:59:09.201Z,420
2018-12-01T14:00:19.385Z,392
2018-12-01T14:01:29.565Z,360
2018-12-01T14:02:39.741Z,308
2018-12-01T14:03:49.931Z,316
2018-12-01T14:05:00.117Z,296
2018-12-01T14:06:10.296Z,288
2018-12-01T14:07:20.476Z,292
2018-12-01T14:08:30.662Z,280
2018-12-01T14:09:40.852Z,272
2018-12-01T14:10:51.048Z,272
2018-12-01T14:12:01.244Z,260
2018-12-01T14:13:11.426Z,248
2018-12-01T14:14:21.713Z,236
2018-12-01T14:15:31.891Z,220
2018-12-01T14:16:42.814Z,208
2018-12-01T14:17:53.087Z,196
2018-12-01T14:19:03.275Z,188
2018-12-01T14:20:13.555Z,176
2018-12-01T14:21:23.748Z,164
2018-12-01T14:22:33.659Z,152
2018-12-01T14:23:43.848Z,140
2018-12-01T14:24:54.026Z,132
2018-12-01T14:26:04.375Z,120
2018-12-01T14:27:14.559Z,112
2018-12-01T14:28:24.753Z,100
2018-12-01T14:29:34.931Z,92
2018-12-01T14:30:45.152Z,84
2018-12-01T14:31:55.431Z,76
2018-12-01T14:33:05.619Z,72
2018-12-01T14:34:15.798Z,64
2018-12-01T14:35:25.981Z,56
2018-12-01T14:36:36.209Z,52
2018-12-01T14:37:46.386Z,44
2018-12-01T14:38:56.573Z,40
2018-12-01T14:40:06.760Z,36
2018-12-01T14:41:16.952Z,32
2018-12-01T14:42:27.133Z,28
2018-12-01T14:43:37.414Z,24
2018-12-01T14:44:47.594Z,24
2018-12-01T14:45:57.784Z,20
2018-12-01T14:47:07.969Z,16
2018-12-01T14:48:18.149Z,12
2018-12-01T14:49:28.334Z,16
2018-12-01T14:50:38.511Z,12
2018-12-01T14:51:48.700Z,12
2018-12-01T14:52:58.882Z,8
2018-12-01T14:54:09.071Z,8
2018-12-01T14:55:18.985Z,8
2018-12-01T14:56:29.164Z,4
2018-12-01T14:57:39.345Z,4
2018-12-01T14:58:49.850Z,4
2018-12-01T15:00:00.041Z,4
2018-12-01T15:01:10.379Z,4
2018-12-01T15:02:20.555Z,0
2018-12-01T15:03:30.932Z,0
2018-12-01T15:04:41.112Z,0
2018-12-01T15:05:51.296Z,0
2018-12-01T15:07:01.484Z,0
2018-12-01T15:08:11.674Z,0
2018-12-01T15:09:21.856Z,0
2018-12-01T15:10:32.046Z,0
2018-12-01T15:11:42.227Z,0
2018-12-01T15:12:52.509Z,0
2018-12-01T15:14:02.695Z,0
2018-12-01T15:15:12.899Z,0
2018-12-01T15:16:23.089Z,0
2018-12-01T15:17:33.276Z,0
2018-12-01T15:18:43.460Z,0
2018-12-01T15:19:53.649Z,0
2018-12-01T15:21:03.568Z,0
2018-12-01T15:22:13.748Z,0
2018-12-01T15:23:23.937Z,0
2018-12-01T15:24:34.217Z,0
2018-12-01T15:25:44.413Z,0
2018-12-01T15:26:54.600Z,0
2018-12-01T15:28:04.786Z,0
2018-12-01T15:29:14.962Z,0
2018-12-01T15:30:25.146Z,0
2018-12-01T15:31:35.326Z,0
2018-12-01T15:32:45.234Z,0
2018-12-01T15:33:55.417Z,0
2018-12-01T15:35:05.595Z,0
2018-12-01T15:36:15.827Z,0
2018-12-01T15:37:26.006Z,0
2018-12-01T15:38:36.191Z,0
2018-12-01T15:39:46.375Z,0
2018-12-01T15:40:56.564Z,0
2018-12-01T15:42:06.744Z,0
2018-12-01T15:43:17.091Z,0
2018-12-01T15:44:27.371Z,0
2018-12-01T15:45:37.559Z,0
2018-12-01T15:46:47.757Z,0
2018-12-01T15:47:59.101Z,0
2018-12-01T15:49:10.503Z,0
2018-12-01T15:50:20.714Z,0
2018-12-01T15:51:30.905Z,0
2018-12-01T15:52:41.088Z,0
2018-12-01T15:53:51.376Z,0
2018-12-01T15:55:01.563Z,0
2018-12-01T15:56:11.746Z,0
2018-12-01T15:57:21.924Z,0
2018-12-01T15:58:32.106Z,0
2018-12-01T15:59:42.341Z,0
2018-12-01T16:00:52.527Z,0
2018-12-01T16:02:02.707Z,0
2018-12-01T16:03:12.892Z,0
2018-12-01T16:04:23.070Z,0
2018-12-01T16:05:33.252Z,0
2018-12-01T16:06:43.443Z,0
2018-12-01T16:07:53.626Z,0
2018-12-01T16:09:03.808Z,0
2018-12-01T16:10:13.991Z,0
2018-12-01T16:11:24.311Z,0
2018-12-01T16:12:34.495Z,0
2018-12-01T16:13:44.676Z,0
2018-12-01T16:14:54.857Z,0
2018-12-01T16:16:05.040Z,0
2018-12-01T16:17:15.316Z,0
2018-12-01T16:18:25.499Z,0
2018-12-01T16:19:35.684Z,0
2018-12-01T16:20:45.869Z,0
2018-12-01T16:21:56.048Z,0
2018-12-01T16:23:06.344Z,0
2018-12-01T16:24:16.552Z,0
2018-12-01T16:25:26.489Z,0
2018-12-01T16:26:36.676Z,0
2018-12-01T16:27:46.873Z,0
2018-12-01T16:28:57.154Z,0
2018-12-01T16:30:07.334Z,0
2018-12-01T16:31:17.512Z,0
2018-12-01T16:32:27.698Z,0
2018-12-01T16:33:37.883Z,0
2018-12-01T16:34:48.170Z,0
2018-12-01T16:35:58.360Z,0